createdAt,value
2023-01-13T00:01:38.634Z,2.65
2023-01-13T00:03:40.578Z,2.22
2023-01-13T00:05:42.186Z,1.50
2023-01-13T00:07:43.876Z,1.45
2023-01-13T00:09:45.464Z,1.58
2023-01-13T00:11:47.575Z,1.38
2023-01-13T00:13:49.224Z,1.92
2023-01-13T00:16:08.407Z,1.30
2023-01-13T00:18:10.174Z,1.48
2023-01-13T00:20:12.065Z,0.98
2023-01-13T00:22:13.657Z,1.52
2023-01-13T00:24:15.483Z,1.10
2023-01-13T00:26:20.362Z,1.63
2023-01-13T00:28:21.955Z,1.00
2023-01-13T00:30:23.550Z,0.77
2023-01-13T00:32:25.310Z,1.63
2023-01-13T00:34:26.904Z,1.58
2023-01-13T00:36:29.365Z,1.17
2023-01-13T00:38:32.909Z,0.90
2023-01-13T00:40:34.655Z,1.63
2023-01-13T00:42:55.112Z,2.65
2023-01-13T00:44:56.824Z,1.17
2023-01-13T00:46:58.438Z,1.50
2023-01-13T00:49:00.066Z,1.05
2023-01-13T00:51:04.001Z,2.15
2023-01-13T00:53:05.634Z,1.08
2023-01-13T00:55:07.564Z,1.42
2023-01-13T00:57:09.500Z,1.15
2023-01-13T00:59:13.226Z,1.38
2023-01-13T01:01:21.151Z,0.95
2023-01-13T01:03:22.864Z,1.10
2023-01-13T01:05:24.728Z,1.42
2023-01-13T01:07:26.338Z,1.02
2023-01-13T01:09:32.647Z,1.40
2023-01-13T01:11:34.788Z,1.42
2023-01-13T01:13:36.957Z,1.55
2023-01-13T01:15:41.658Z,1.15
2023-01-13T01:17:43.263Z,1.50
2023-01-13T01:19:44.846Z,1.98
2023-01-13T01:21:46.456Z,0.73
2023-01-13T01:23:48.056Z,1.42
2023-01-13T01:25:49.707Z,0.93
2023-01-13T01:27:51.306Z,1.13
2023-01-13T01:29:53.043Z,0.70
2023-01-13T01:31:56.775Z,0.80
2023-01-13T01:33:59.381Z,0.90
2023-01-13T01:36:04.417Z,0.60
2023-01-13T01:38:06.131Z,1.17
2023-01-13T01:40:08.542Z,1.08
2023-01-13T01:42:35.898Z,0.98
2023-01-13T01:44:43.291Z,1.00
2023-01-13T01:46:45.019Z,0.95
2023-01-13T01:48:46.705Z,0.77
2023-01-13T01:50:48.333Z,0.70
2023-01-13T01:53:21.747Z,0.98
2023-01-13T01:55:29.515Z,1.65
2023-01-13T01:58:03.522Z,0.73
2023-01-13T02:00:06.475Z,0.95
2023-01-13T02:02:08.921Z,0.77
2023-01-13T02:04:18.597Z,1.25
2023-01-13T02:06:20.248Z,0.70
2023-01-13T02:08:22.225Z,0.50
2023-01-13T02:10:27.597Z,1.73
2023-01-13T02:12:29.456Z,0.70
2023-01-13T02:14:32.242Z,0.82
2023-01-13T02:16:34.011Z,1.17
2023-01-13T02:19:28.139Z,1.10
2023-01-13T02:22:14.856Z,0.70
2023-01-13T02:24:55.660Z,2.38
2023-01-13T02:27:12.156Z,0.75
2023-01-13T02:30:16.248Z,0.57
2023-01-13T02:32:33.716Z,0.93
2023-01-13T02:34:43.351Z,0.90
2023-01-13T02:37:16.323Z,0.60
2023-01-13T02:39:41.523Z,0.88
2023-01-13T02:42:13.208Z,0.70
2023-01-13T02:44:19.789Z,0.68
2023-01-13T02:46:29.319Z,0.75
2023-01-13T02:48:32.208Z,0.70
2023-01-13T02:50:45.424Z,2.33
2023-01-13T02:52:58.556Z,1.05
2023-01-13T02:55:08.658Z,0.80
2023-01-13T02:57:11.888Z,0.70
2023-01-13T02:59:14.279Z,1.40
2023-01-13T03:01:16.812Z,1.13
2023-01-13T03:03:19.066Z,0.93
2023-01-13T03:05:20.733Z,0.70
2023-01-13T03:07:46.048Z,0.73
2023-01-13T03:10:18.032Z,0.60
2023-01-13T03:12:47.029Z,1.17
2023-01-13T03:15:11.384Z,1.10
2023-01-13T03:17:30.427Z,0.70
2023-01-13T03:20:15.577Z,1.17
2023-01-13T03:22:26.992Z,0.80
2023-01-13T03:24:40.827Z,0.40
2023-01-13T03:26:42.457Z,0.93
2023-01-13T03:28:58.283Z,0.60
2023-01-13T03:31:06.372Z,0.55
2023-01-13T03:33:16.935Z,0.68
2023-01-13T03:35:30.699Z,2.50
2023-01-13T03:37:37.227Z,1.15
2023-01-13T03:39:43.358Z,0.70
2023-01-13T03:41:53.048Z,1.00
2023-01-13T03:44:22.069Z,0.52
2023-01-13T03:46:34.454Z,0.73
2023-01-13T03:48:40.181Z,0.55
2023-01-13T03:50:49.626Z,1.30
2023-01-13T03:53:06.557Z,0.90
2023-01-13T03:55:18.768Z,0.70
2023-01-13T03:57:26.620Z,0.40
2023-01-13T03:59:33.326Z,0.60
2023-01-13T04:02:01.754Z,0.60
2023-01-13T04:04:25.857Z,0.68
2023-01-13T04:06:40.444Z,0.50
2023-01-13T04:08:51.124Z,0.85
2023-01-13T04:11:00.272Z,0.50
2023-01-13T04:13:06.879Z,1.17
2023-01-13T04:15:09.437Z,1.30
2023-01-13T04:17:11.514Z,0.80
2023-01-13T04:19:13.132Z,0.70
2023-01-13T04:21:14.825Z,0.40
2023-01-13T04:23:17.939Z,0.68
2023-01-13T04:25:19.538Z,0.43
2023-01-13T04:27:21.159Z,1.00
2023-01-13T04:29:23.186Z,0.70
2023-01-13T04:31:24.877Z,0.47
2023-01-13T04:33:26.704Z,0.50
2023-01-13T04:35:28.304Z,0.88
2023-01-13T04:37:29.895Z,0.75
2023-01-13T04:39:31.520Z,0.50
2023-01-13T04:41:53.159Z,0.40
2023-01-13T04:43:54.814Z,0.50
2023-01-13T04:45:56.501Z,0.60
2023-01-13T04:47:58.320Z,0.70
2023-01-13T04:49:59.970Z,0.68
2023-01-13T04:52:03.730Z,0.40
2023-01-13T04:54:05.553Z,0.68
2023-01-13T04:56:07.529Z,0.57
2023-01-13T04:58:10.665Z,0.60
2023-01-13T05:00:14.829Z,2.53
2023-01-13T05:02:19.774Z,1.33
2023-01-13T05:04:21.540Z,0.60
2023-01-13T05:06:23.209Z,0.98
2023-01-13T05:08:24.877Z,1.08
2023-01-13T05:10:27.211Z,1.02
2023-01-13T05:12:47.568Z,0.52
2023-01-13T05:15:18.549Z,1.17
2023-01-13T05:17:24.744Z,0.90
2023-01-13T05:19:31.814Z,2.05
2023-01-13T05:21:52.223Z,6.55
2023-01-13T05:24:12.632Z,1.65
2023-01-13T05:26:14.288Z,5.73
2023-01-13T05:28:16.255Z,7.60
2023-01-13T05:30:18.818Z,0.57
2023-01-13T05:32:21.284Z,7.00
2023-01-13T05:34:22.931Z,7.35
2023-01-13T05:36:24.536Z,2.35
2023-01-13T05:38:26.236Z,0.98
2023-01-13T05:40:46.761Z,5.35
2023-01-13T05:43:07.179Z,14.13
2023-01-13T05:45:09.763Z,6.30
2023-01-13T05:47:11.401Z,9.43
2023-01-13T05:49:13.335Z,11.55
2023-01-13T05:51:15.115Z,14.48
2023-01-13T05:53:18.139Z,11.32
2023-01-13T05:55:19.802Z,14.27
2023-01-13T05:57:21.429Z,4.32
2023-01-13T05:59:23.024Z,4.30
2023-01-13T06:01:24.762Z,6.43
2023-01-13T06:03:26.446Z,5.88
2023-01-13T06:05:29.073Z,17.15
2023-01-13T06:07:30.710Z,4.63
2023-01-13T06:09:32.354Z,12.82
2023-01-13T06:11:34.001Z,7.75
2023-01-13T06:13:35.673Z,3.80
2023-01-13T06:15:37.332Z,3.97
2023-01-13T06:17:39.086Z,4.10
2023-01-13T06:19:41.451Z,6.43
2023-01-13T06:21:46.213Z,9.68
2023-01-13T06:23:47.830Z,1.60
2023-01-13T06:26:02.878Z,9.18
2023-01-13T06:28:04.739Z,1.88
2023-01-13T06:30:06.923Z,5.57
2023-01-13T06:32:32.313Z,2.42
2023-01-13T06:34:35.462Z,3.45
2023-01-13T06:36:45.800Z,5.72
2023-01-13T06:38:52.101Z,5.70
2023-01-13T06:40:54.632Z,1.98
2023-01-13T06:43:16.562Z,0.55
2023-01-13T06:45:18.994Z,3.47
2023-01-13T06:47:22.346Z,6.20
2023-01-13T06:49:24.170Z,4.28
2023-01-13T06:51:25.901Z,9.52
2023-01-13T06:53:27.634Z,2.38
2023-01-13T06:55:29.284Z,3.67
2023-01-13T06:57:30.875Z,2.92
2023-01-13T06:59:35.141Z,7.65
2023-01-13T07:01:36.912Z,4.15
2023-01-13T07:03:39.931Z,5.70
2023-01-13T07:05:44.072Z,2.90
2023-01-13T07:07:46.156Z,2.47
2023-01-13T07:09:47.768Z,6.40
2023-01-13T07:11:49.791Z,8.45
2023-01-13T07:14:09.964Z,2.30
2023-01-13T07:16:11.638Z,3.85
2023-01-13T07:18:13.355Z,1.45
2023-01-13T07:20:16.146Z,5.80
2023-01-13T07:22:17.838Z,2.90
2023-01-13T07:24:20.165Z,9.20
2023-01-13T07:26:21.856Z,3.58
2023-01-13T07:28:24.690Z,2.28
2023-01-13T07:30:26.355Z,3.00
2023-01-13T07:32:28.039Z,0.68
2023-01-13T07:34:29.748Z,1.67
2023-01-13T07:36:31.392Z,1.75
2023-01-13T07:38:33.982Z,4.40
2023-01-13T07:40:35.880Z,8.32
2023-01-13T07:42:57.320Z,3.78
2023-01-13T07:44:59.153Z,4.20
2023-01-13T07:47:00.822Z,0.63
2023-01-13T07:49:02.982Z,0.65
2023-01-13T07:51:12.613Z,4.22
2023-01-13T07:53:14.266Z,1.27
2023-01-13T07:55:16.077Z,5.20
2023-01-13T07:57:18.049Z,2.75
2023-01-13T07:59:19.643Z,2.00
2023-01-13T08:01:22.429Z,1.85
2023-01-13T08:03:24.624Z,4.55
2023-01-13T08:05:26.496Z,0.50
2023-01-13T08:07:28.216Z,0.63
2023-01-13T08:09:29.880Z,0.90
2023-01-13T08:11:31.499Z,0.82
2023-01-13T08:13:33.807Z,2.65
2023-01-13T08:15:35.428Z,1.55
2023-01-13T08:17:37.156Z,2.05
2023-01-13T08:19:38.830Z,1.00
2023-01-13T08:21:40.589Z,3.55
2023-01-13T08:23:44.286Z,2.38
2023-01-13T08:25:46.140Z,1.08
2023-01-13T08:27:49.469Z,4.03
2023-01-13T08:29:51.183Z,3.33
2023-01-13T08:31:52.901Z,1.15
2023-01-13T08:33:54.578Z,3.10
2023-01-13T08:35:56.518Z,2.97
2023-01-13T08:37:58.156Z,4.50
2023-01-13T08:39:59.870Z,3.60
2023-01-13T08:42:04.179Z,3.30
2023-01-13T08:44:06.727Z,2.60
2023-01-13T08:46:08.526Z,1.92
2023-01-13T08:48:10.261Z,3.10
2023-01-13T08:50:12.936Z,7.97
2023-01-13T08:52:15.326Z,1.20
2023-01-13T08:54:17.825Z,0.60
2023-01-13T08:56:19.596Z,0.60
2023-01-13T08:58:21.204Z,0.40
2023-01-13T09:00:23.104Z,2.88
2023-01-13T09:02:25.384Z,2.65
2023-01-13T09:04:28.993Z,1.50
2023-01-13T09:06:30.714Z,0.55
2023-01-13T09:08:32.405Z,1.70
2023-01-13T09:10:35.564Z,0.52
2023-01-13T09:12:55.914Z,2.67
2023-01-13T09:14:57.747Z,0.70
2023-01-13T09:17:00.331Z,6.10
2023-01-13T09:19:01.981Z,1.50
2023-01-13T09:21:03.959Z,2.20
2023-01-13T09:23:08.842Z,3.95
2023-01-13T09:25:12.655Z,1.17
2023-01-13T09:27:15.572Z,2.22
2023-01-13T09:29:17.644Z,2.90
2023-01-13T09:31:19.342Z,4.45
2023-01-13T09:33:39.883Z,3.70
2023-01-13T09:35:41.570Z,2.80
2023-01-13T09:37:43.229Z,2.45
2023-01-13T09:39:44.865Z,5.47
2023-01-13T09:42:15.120Z,1.50
2023-01-13T09:44:22.713Z,2.15
2023-01-13T09:46:47.610Z,1.95
2023-01-13T09:48:52.311Z,0.52
2023-01-13T09:51:10.065Z,2.83
2023-01-13T09:53:19.054Z,4.50
2023-01-13T09:55:34.647Z,2.60
2023-01-13T09:57:40.166Z,0.45
2023-01-13T09:59:42.782Z,0.63
2023-01-13T10:02:15.251Z,1.13
2023-01-13T10:04:17.045Z,1.55
2023-01-13T10:06:34.835Z,0.85
2023-01-13T10:08:42.865Z,5.38
2023-01-13T10:10:55.296Z,1.40
2023-01-13T10:13:15.212Z,2.72
2023-01-13T10:15:23.184Z,0.45
2023-01-13T10:17:34.160Z,0.50
2023-01-13T10:19:48.735Z,1.70
2023-01-13T10:22:17.621Z,1.23
2023-01-13T10:24:47.028Z,2.20
2023-01-13T10:27:07.810Z,3.33
2023-01-13T10:29:22.038Z,4.32
2023-01-13T10:31:25.618Z,11.60
2023-01-13T10:33:30.880Z,14.88
2023-01-13T10:35:50.985Z,13.98
2023-01-13T10:37:57.561Z,14.63
2023-01-13T10:40:02.256Z,14.20
2023-01-13T10:42:06.363Z,7.57
2023-01-13T10:44:17.304Z,11.73
2023-01-13T10:46:20.574Z,19.40
2023-01-13T10:48:22.480Z,12.93
2023-01-13T10:50:29.399Z,6.72
2023-01-13T10:52:33.640Z,6.90
2023-01-13T10:54:36.513Z,8.13
2023-01-13T10:56:39.907Z,10.25
2023-01-13T10:58:41.541Z,15.45
2023-01-13T11:00:43.576Z,9.82
2023-01-13T11:02:45.298Z,11.48
2023-01-13T11:05:03.729Z,9.50
2023-01-13T11:07:18.196Z,11.80
2023-01-13T11:09:22.505Z,10.85
2023-01-13T11:11:40.791Z,10.82
2023-01-13T11:14:04.040Z,12.80
2023-01-13T11:16:13.141Z,7.40
2023-01-13T11:18:33.260Z,11.65
2023-01-13T11:20:41.162Z,10.10
2023-01-13T11:22:51.988Z,14.07
2023-01-13T11:25:03.230Z,15.73
2023-01-13T11:29:39.911Z,9.55
2023-01-13T11:31:50.110Z,14.93
2023-01-13T11:34:08.070Z,10.23
2023-01-13T11:36:20.493Z,9.93
2023-01-13T11:38:40.199Z,10.38
2023-01-13T11:40:46.885Z,13.85
2023-01-13T11:43:03.940Z,16.95
2023-01-13T11:45:17.902Z,10.00
2023-01-13T11:47:23.552Z,8.27
2023-01-13T11:49:31.023Z,11.90
2023-01-13T11:51:43.031Z,14.40
2023-01-13T11:54:10.053Z,8.68
2023-01-13T11:56:56.133Z,7.13
2023-01-13T11:59:12.769Z,8.45
2023-01-13T12:01:45.112Z,7.45
2023-01-13T12:03:58.033Z,10.63
2023-01-13T12:06:29.969Z,8.18
2023-01-13T12:08:53.284Z,7.78
2023-01-13T12:11:13.354Z,6.53
2023-01-13T12:13:29.230Z,9.52
2023-01-13T12:15:36.160Z,9.90
2023-01-13T12:17:52.755Z,13.40
2023-01-13T12:19:55.079Z,10.98
2023-01-13T12:22:11.466Z,7.03
2023-01-13T12:24:39.085Z,12.43
2023-01-13T12:26:58.453Z,10.63
2023-01-13T12:29:06.248Z,5.43
2023-01-13T12:31:09.448Z,6.68
2023-01-13T12:33:39.871Z,8.13
2023-01-13T12:35:56.723Z,8.30
2023-01-13T12:38:14.598Z,7.30
2023-01-13T12:40:56.071Z,5.13
2023-01-13T12:45:27.156Z,5.32
2023-01-13T12:47:46.241Z,3.53
2023-01-13T12:49:47.908Z,2.70
2023-01-13T12:51:52.560Z,2.92
2023-01-13T12:53:56.289Z,6.32
2023-01-13T12:56:32.162Z,6.03
2023-01-13T12:58:33.799Z,5.05
2023-01-13T13:00:38.200Z,4.22
2023-01-13T13:02:42.132Z,4.30
2023-01-13T13:04:54.020Z,4.70
2023-01-13T13:07:08.381Z,3.53
2023-01-13T13:09:38.254Z,2.60
2023-01-13T13:11:57.953Z,5.65
2023-01-13T13:14:01.163Z,4.97
2023-01-13T13:16:28.713Z,3.83
2023-01-13T13:18:30.469Z,2.92
2023-01-13T13:20:54.178Z,2.67
2023-01-13T13:22:55.929Z,2.63
2023-01-13T13:24:57.590Z,3.97
2023-01-13T13:27:26.089Z,5.07
2023-01-13T13:30:24.855Z,2.83
2023-01-13T13:32:45.056Z,2.58
2023-01-13T13:35:01.902Z,3.78
2023-01-13T13:37:28.790Z,8.02
2023-01-13T13:39:50.557Z,2.42
2023-01-13T13:42:19.667Z,2.97
2023-01-13T13:44:46.002Z,2.42
2023-01-13T13:46:48.753Z,3.72
2023-01-13T13:48:53.832Z,2.90
2023-01-13T13:51:02.056Z,4.82
2023-01-13T13:53:08.324Z,2.42
2023-01-13T13:55:20.133Z,2.10
2023-01-13T13:57:34.959Z,5.68
2023-01-13T13:59:39.700Z,3.22
2023-01-13T14:01:45.167Z,7.45
2023-01-13T14:03:46.946Z,5.78
2023-01-13T14:06:04.109Z,10.93
2023-01-13T14:08:16.741Z,5.22
2023-01-13T14:10:27.094Z,7.43
2023-01-13T14:12:30.274Z,4.75
2023-01-13T14:14:31.986Z,5.20
2023-01-13T14:16:37.465Z,7.88
2023-01-13T14:18:48.452Z,7.57
2023-01-13T14:21:01.448Z,5.90
2023-01-13T14:23:05.618Z,9.35
2023-01-13T14:25:34.867Z,4.85
2023-01-13T14:27:43.146Z,5.88
2023-01-13T14:29:45.477Z,2.97
2023-01-13T14:31:49.255Z,1.73
2023-01-13T14:33:54.547Z,2.28
2023-01-13T14:36:33.018Z,7.38
2023-01-13T14:38:34.651Z,6.45
2023-01-13T14:40:36.219Z,5.72
2023-01-13T14:42:37.851Z,6.88
2023-01-13T14:44:45.628Z,5.07
2023-01-13T14:46:47.540Z,11.65
2023-01-13T14:49:00.456Z,3.13
2023-01-13T14:51:05.769Z,2.50
2023-01-13T14:53:34.924Z,3.08
2023-01-13T14:55:38.531Z,2.63
2023-01-13T14:57:41.730Z,3.22
2023-01-13T14:59:51.489Z,2.15
2023-01-13T15:01:54.657Z,2.35
2023-01-13T15:04:26.472Z,2.50
2023-01-13T15:06:28.105Z,4.45
2023-01-13T15:08:34.793Z,3.10
2023-01-13T15:10:46.722Z,1.67
2023-01-13T15:12:52.328Z,2.50
2023-01-13T15:14:54.059Z,4.90
2023-01-13T15:16:56.363Z,2.35
2023-01-13T15:18:58.369Z,6.28
2023-01-13T15:21:00.080Z,3.88
2023-01-13T15:23:01.769Z,4.88
2023-01-13T15:25:03.674Z,5.10
2023-01-13T15:27:17.605Z,2.03
2023-01-13T15:29:19.801Z,4.75
2023-01-13T15:31:22.398Z,2.90
2023-01-13T15:33:24.029Z,7.10
2023-01-13T15:35:28.500Z,4.68
2023-01-13T15:37:30.112Z,2.05
2023-01-13T15:39:31.739Z,4.40
2023-01-13T15:41:52.000Z,6.00
2023-01-13T15:44:12.493Z,6.47
2023-01-13T15:46:36.300Z,6.47
2023-01-13T15:48:37.969Z,28.27
2023-01-13T15:50:40.011Z,24.05
2023-01-13T15:52:41.859Z,11.35
2023-01-13T15:54:43.472Z,15.18
2023-01-13T15:56:46.163Z,14.68
2023-01-13T15:58:47.814Z,12.05
2023-01-13T16:00:49.496Z,16.60
2023-01-13T16:02:51.543Z,9.98
2023-01-13T16:04:54.477Z,11.00
2023-01-13T16:06:56.213Z,9.25
2023-01-13T16:08:58.023Z,13.10
2023-01-13T16:10:59.681Z,11.30
2023-01-13T16:13:02.403Z,10.77
2023-01-13T16:15:04.304Z,13.40
2023-01-13T16:17:17.969Z,12.02
2023-01-13T16:19:19.699Z,7.93
2023-01-13T16:21:24.544Z,9.02
2023-01-13T16:23:26.197Z,13.05
2023-01-13T16:25:28.331Z,9.63
2023-01-13T16:27:29.959Z,10.57
2023-01-13T16:29:31.583Z,4.95
2023-01-13T16:31:34.427Z,13.95
2023-01-13T16:33:36.065Z,8.82
2023-01-13T16:35:37.744Z,7.72
2023-01-13T16:37:59.786Z,6.28
2023-01-13T16:40:02.472Z,9.85
2023-01-13T16:42:04.293Z,9.57
2023-01-13T16:44:06.262Z,11.25
2023-01-13T16:46:19.966Z,5.10
2023-01-13T16:48:22.739Z,3.58
2023-01-13T16:50:27.100Z,7.35
2023-01-13T16:52:28.727Z,11.10
2023-01-13T16:54:30.348Z,11.20
2023-01-13T16:56:36.537Z,8.35
2023-01-13T16:58:38.193Z,10.70
2023-01-13T17:00:39.887Z,8.07
2023-01-13T17:02:41.738Z,7.63
2023-01-13T17:04:43.483Z,8.68
2023-01-13T17:06:54.285Z,9.88
2023-01-13T17:09:01.321Z,7.63
2023-01-13T17:11:03.006Z,8.23
2023-01-13T17:13:15.664Z,11.05
2023-01-13T17:15:19.532Z,7.53
2023-01-13T17:17:27.682Z,9.85
2023-01-13T17:19:29.356Z,16.35
2023-01-13T17:21:31.034Z,10.70
2023-01-13T17:23:33.391Z,9.45
2023-01-13T17:25:35.028Z,8.65
2023-01-13T17:27:36.731Z,6.93
2023-01-13T17:29:38.878Z,10.65
2023-01-13T17:31:40.716Z,12.10
2023-01-13T17:33:42.350Z,11.38
2023-01-13T17:35:43.979Z,4.82
2023-01-13T17:37:45.973Z,11.68
2023-01-13T17:39:48.406Z,16.40
2023-01-13T17:41:51.140Z,13.82
2023-01-13T17:43:53.526Z,9.43
2023-01-13T17:45:55.205Z,10.02
2023-01-13T17:48:00.317Z,10.50
2023-01-13T17:50:03.981Z,10.73
2023-01-13T17:52:06.413Z,9.20
2023-01-13T17:54:12.371Z,12.02
2023-01-13T17:56:15.576Z,14.40
2023-01-13T17:58:17.373Z,8.50
2023-01-13T18:00:19.290Z,12.73
2023-01-13T18:02:21.164Z,9.20
2023-01-13T18:04:27.483Z,15.75
2023-01-13T18:06:29.435Z,9.25
2023-01-13T18:08:31.116Z,9.63
2023-01-13T18:10:33.923Z,14.43
2023-01-13T18:12:35.583Z,11.18
2023-01-13T18:14:37.220Z,14.93
2023-01-13T18:16:39.304Z,12.10
2023-01-13T18:18:43.277Z,16.75
2023-01-13T18:21:03.745Z,10.00
2023-01-13T18:23:24.068Z,7.28
2023-01-13T18:25:44.476Z,14.07
2023-01-13T18:27:46.194Z,9.43
2023-01-13T18:29:49.318Z,9.88
2023-01-13T18:31:52.451Z,8.15
2023-01-13T18:33:54.177Z,7.70
2023-01-13T18:35:55.819Z,11.25
2023-01-13T18:37:57.476Z,12.38
2023-01-13T18:39:59.101Z,14.15
2023-01-13T18:42:19.629Z,9.48
2023-01-13T18:44:21.572Z,6.95
2023-01-13T18:46:23.315Z,9.45
2023-01-13T18:48:25.168Z,14.15
2023-01-13T18:50:27.981Z,15.23
2023-01-13T18:52:29.745Z,11.32
2023-01-13T18:54:31.412Z,12.82
2023-01-13T18:56:33.116Z,12.95
2023-01-13T18:58:34.720Z,8.63
2023-01-13T19:00:37.595Z,11.73
2023-01-13T19:02:39.546Z,8.52
2023-01-13T19:04:41.338Z,4.30
2023-01-13T19:06:49.203Z,10.40
2023-01-13T19:08:53.210Z,9.77
2023-01-13T19:10:56.223Z,6.05
2023-01-13T19:12:57.916Z,6.35
2023-01-13T19:15:00.934Z,6.25
2023-01-13T19:17:11.147Z,2.88
2023-01-13T19:19:12.757Z,10.23
2023-01-13T19:21:14.834Z,9.15
2023-01-13T19:23:16.499Z,7.32
2023-01-13T19:25:18.238Z,3.42
2023-01-13T19:27:20.903Z,4.78
2023-01-13T19:29:22.623Z,9.00
2023-01-13T19:31:24.350Z,5.03
2023-01-13T19:33:31.699Z,3.50
2023-01-13T19:35:33.487Z,2.45
2023-01-13T19:37:36.806Z,5.85
2023-01-13T19:39:38.923Z,6.18
2023-01-13T19:41:59.245Z,3.63
2023-01-13T19:44:19.596Z,8.67
2023-01-13T19:46:21.627Z,3.70
2023-01-13T19:48:23.362Z,6.03
2023-01-13T19:50:25.409Z,6.18
2023-01-13T19:52:27.050Z,2.85
2023-01-13T19:54:28.852Z,2.78
2023-01-13T19:56:30.852Z,6.13
2023-01-13T19:58:32.947Z,5.43
2023-01-13T20:00:34.841Z,3.80
2023-01-13T20:02:36.974Z,3.40
2023-01-13T20:04:38.778Z,6.18
2023-01-13T20:06:41.286Z,6.88
2023-01-13T20:08:45.945Z,5.15
2023-01-13T20:10:48.675Z,2.97
2023-01-13T20:12:50.318Z,6.93
2023-01-13T20:14:52.621Z,6.47
2023-01-13T20:16:54.336Z,6.68
2023-01-13T20:18:56.823Z,7.15
2023-01-13T20:21:03.849Z,5.30
2023-01-13T20:23:05.580Z,2.03
2023-01-13T20:25:07.985Z,4.57
2023-01-13T20:27:10.100Z,4.72
2023-01-13T20:29:12.094Z,3.28
2023-01-13T20:31:14.778Z,3.38
2023-01-13T20:33:16.586Z,5.40
2023-01-13T20:35:18.405Z,3.67
2023-01-13T20:37:20.089Z,4.07
2023-01-13T20:39:26.191Z,1.98
2023-01-13T20:41:46.490Z,6.05
2023-01-13T20:43:52.132Z,9.30
2023-01-13T20:45:54.256Z,3.92
2023-01-13T20:47:55.935Z,2.83
2023-01-13T20:49:58.843Z,4.05
2023-01-13T20:52:00.452Z,1.58
2023-01-13T20:54:02.156Z,2.53
2023-01-13T20:56:08.244Z,5.85
2023-01-13T20:58:09.845Z,5.57
2023-01-13T21:00:11.780Z,5.55
2023-01-13T21:02:15.287Z,2.70
2023-01-13T21:04:16.969Z,2.72
2023-01-13T21:06:20.390Z,3.50
2023-01-13T21:08:22.007Z,2.83
2023-01-13T21:10:23.596Z,4.90
2023-01-13T21:12:43.700Z,9.63
2023-01-13T21:15:04.224Z,4.45
2023-01-13T21:17:07.034Z,5.43
2023-01-13T21:19:10.547Z,6.47
2023-01-13T21:21:12.268Z,4.00
2023-01-13T21:23:13.907Z,5.03
2023-01-13T21:25:16.739Z,3.47
2023-01-13T21:27:18.427Z,2.45
2023-01-13T21:29:20.136Z,2.35
2023-01-13T21:31:21.828Z,2.90
2023-01-13T21:33:23.459Z,6.22
2023-01-13T21:35:25.130Z,4.35
2023-01-13T21:37:26.767Z,4.70
2023-01-13T21:39:28.414Z,2.60
2023-01-13T21:41:48.635Z,2.22
2023-01-13T21:44:09.037Z,1.30
2023-01-13T21:46:31.846Z,2.63
2023-01-13T21:48:33.635Z,4.18
2023-01-13T21:50:37.768Z,3.88
2023-01-13T21:52:42.584Z,0.95
2023-01-13T21:55:02.763Z,4.05
2023-01-13T21:57:04.435Z,2.92
2023-01-13T21:59:06.072Z,3.80
2023-01-13T22:01:09.706Z,2.50
2023-01-13T22:03:15.018Z,1.15
2023-01-13T22:05:18.674Z,1.75
2023-01-13T22:07:20.863Z,1.25
2023-01-13T22:09:22.524Z,1.70
2023-01-13T22:11:24.150Z,3.58
2023-01-13T22:13:47.630Z,1.30
2023-01-13T22:15:49.836Z,4.13
2023-01-13T22:17:53.478Z,2.75
2023-01-13T22:19:58.081Z,2.00
2023-01-13T22:21:59.694Z,4.22
2023-01-13T22:24:02.195Z,1.08
2023-01-13T22:26:05.532Z,1.95
2023-01-13T22:28:09.083Z,1.90
2023-01-13T22:30:18.016Z,1.80
2023-01-13T22:32:20.673Z,3.40
2023-01-13T22:34:23.007Z,4.20
2023-01-13T22:36:24.690Z,2.13
2023-01-13T22:38:26.326Z,1.17
2023-01-13T22:40:27.975Z,0.95
2023-01-13T22:42:29.702Z,2.00
2023-01-13T22:44:31.910Z,1.67
2023-01-13T22:46:33.642Z,1.55
2023-01-13T22:48:35.913Z,2.40
2023-01-13T22:50:37.643Z,4.10
2023-01-13T22:52:39.576Z,1.42
2023-01-13T22:54:41.329Z,1.23
2023-01-13T22:56:42.992Z,1.42
2023-01-13T22:58:44.889Z,1.58
2023-01-13T23:00:46.815Z,1.17
2023-01-13T23:02:48.632Z,1.25
2023-01-13T23:04:50.519Z,1.15
2023-01-13T23:06:52.278Z,1.15
2023-01-13T23:08:54.589Z,2.08
2023-01-13T23:11:23.981Z,1.40
2023-01-13T23:13:25.632Z,1.00
2023-01-13T23:15:27.405Z,2.42
2023-01-13T23:17:29.047Z,1.83
2023-01-13T23:19:30.650Z,1.60
2023-01-13T23:21:36.039Z,1.38
2023-01-13T23:23:38.039Z,2.08
2023-01-13T23:25:39.742Z,3.85
2023-01-13T23:27:41.436Z,1.02
2023-01-13T23:29:43.045Z,1.70
2023-01-13T23:31:44.670Z,1.23
2023-01-13T23:33:46.580Z,1.55
2023-01-13T23:35:59.476Z,1.13
2023-01-13T23:38:01.084Z,3.20
2023-01-13T23:40:02.867Z,3.22
2023-01-13T23:42:04.536Z,1.20
2023-01-13T23:44:06.954Z,1.60
2023-01-13T23:46:12.344Z,1.35
2023-01-13T23:48:14.367Z,1.25
2023-01-13T23:50:16.254Z,1.85
2023-01-13T23:52:18.081Z,0.98
2023-01-13T23:54:19.933Z,2.00
2023-01-13T23:56:26.713Z,2.38
2023-01-13T23:58:29.569Z,1.52
